Time;durP1;ratioP1;P1;durP2;ratioP2;P2;SDS_P1;SDS_P2;PMS_P1;PMS_P2;Temp;Humidity;BMP_temperature;BMP_pressure;BME280_temperature;BME280_humidity;BME280_pressure;Samples;Min_cycle;Max_cycle;Signal;HPM_P1;HPM_P2
2021/11/10 18:20:19;;;;;;;15.40;10.88;;;13.40;96.20;;;;;;5088371;28;20375;-54
2021/11/10 18:22:46;;;;;;;13.20;11.18;;;13.50;95.20;;;;;;5064642;28;20045;-55
2021/11/10 18:25:15;;;;;;;15.90;10.25;;;13.50;95.10;;;;;;5063609;28;20024;-53
2021/11/10 18:27:41;;;;;;;13.07;10.38;;;13.50;95.00;;;;;;5060774;28;20024;-54
2021/11/10 18:30:08;;;;;;;18.75;12.57;;;13.70;95.10;;;;;;5064506;28;20116;-55
2021/11/10 18:32:35;;;;;;;16.23;13.10;;;13.80;90.60;;;;;;5061781;28;20040;-57
2021/11/10 18:35:00;;;;;;;18.58;13.77;;;13.80;84.50;;;;;;5066189;28;20450;-55
2021/11/10 18:37:26;;;;;;;16.98;13.18;;;13.70;80.80;;;;;;5059917;28;20052;-54
2021/11/10 18:39:52;;;;;;;17.55;12.63;;;13.70;82.50;;;;;;5063213;28;20048;-53
2021/11/10 18:42:21;;;;;;;19.48;13.05;;;13.70;83.20;;;;;;5069103;28;20036;-52
2021/11/10 18:44:48;;;;;;;17.95;11.60;;;13.80;83.50;;;;;;5068147;28;20120;-55
2021/11/10 18:47:14;;;;;;;16.70;12.23;;;13.90;82.80;;;;;;5069464;28;20056;-56
2021/11/10 18:49:40;;;;;;;15.90;12.70;;;13.90;86.80;;;;;;5068465;28;20482;-53
2021/11/10 18:52:07;;;;;;;17.92;13.13;;;14.00;88.30;;;;;;5064931;28;20032;-54
2021/11/10 18:54:34;;;;;;;13.65;12.25;;;14.10;90.20;;;;;;5067939;28;20078;-55
2021/11/10 18:56:59;;;;;;;15.20;12.77;;;13.90;91.10;;;;;;5068291;28;20036;-50
2021/11/10 18:59:27;;;;;;;15.00;11.80;;;14.00;90.90;;;;;;5069354;28;20033;-53
2021/11/10 19:02:04;;;;;;;19.70;13.02;;;13.90;90.40;;;;;;5063093;28;20115;-56
2021/11/10 19:04:44;;;;;;;16.38;13.07;;;13.90;90.40;;;;;;5069326;28;20021;-56
2021/11/10 19:22:56;;;;;;;18.77;12.77;;;14.00;88.30;;;;;;5058745;28;20079;-51
2021/11/10 19:25:22;;;;;;;15.40;12.63;;;14.10;87.70;;;;;;5064808;28;20032;-52
2021/11/10 19:27:48;;;;;;;16.58;11.05;;;14.10;87.00;;;;;;5065836;28;20517;-53
2021/11/10 19:30:18;;;;;;;16.88;13.18;;;14.00;86.90;;;;;;5054113;28;20021;-55
2021/11/10 19:32:46;;;;;;;16.20;12.38;;;14.00;86.90;;;;;;5053468;28;20033;-55
2021/11/10 19:35:17;;;;;;;16.35;11.95;;;14.00;86.70;;;;;;5053491;28;20031;-54
2021/11/10 19:37:42;;;;;;;14.85;12.05;;;13.90;86.40;;;;;;5055523;28;20059;-53
2021/11/10 19:40:10;;;;;;;21.50;14.32;;;13.90;86.90;;;;;;5052993;28;20421;-55
2021/11/10 19:42:36;;;;;;;20.23;14.73;;;13.90;86.40;;;;;;5051505;28;20084;-54
2021/11/10 19:45:03;;;;;;;16.73;13.27;;;14.00;86.70;;;;;;5050512;28;20033;-53
2021/11/10 19:47:31;;;;;;;15.55;13.13;;;14.10;86.00;;;;;;5053334;28;20052;-50
2021/11/10 19:49:57;;;;;;;15.40;11.95;;;14.10;86.30;;;;;;5055423;28;20033;-53
2021/11/10 19:52:23;;;;;;;15.60;13.00;;;14.10;86.10;;;;;;5048026;28;20041;-56
2021/11/10 19:54:53;;;;;;;15.80;12.48;;;14.10;85.80;;;;;;5049430;28;20494;-55
2021/11/10 19:57:21;;;;;;;16.35;11.70;;;14.00;85.60;;;;;;5052600;28;20029;-50
2021/11/10 19:59:47;;;;;;;15.40;12.25;;;14.00;86.90;;;;;;5053994;28;20033;-52
2021/11/10 20:02:13;;;;;;;17.98;12.55;;;14.00;86.70;;;;;;5047731;28;20033;-55
2021/11/10 20:04:40;;;;;;;14.82;12.38;;;14.00;86.30;;;;;;5053779;28;20135;-52
2021/11/10 20:07:06;;;;;;;41.05;36.47;;;14.00;86.00;;;;;;5050016;28;20064;-54
2021/11/10 20:12:54;;;;;;;24.13;16.95;;;14.10;87.00;;;;;;5048191;28;20174;-52
2021/11/10 20:15:20;;;;;;;16.55;12.60;;;14.00;85.90;;;;;;5052392;28;20029;-54
2021/11/10 20:17:48;;;;;;;15.95;12.27;;;14.00;86.80;;;;;;5048645;28;20025;-52
2021/11/10 20:20:15;;;;;;;14.93;11.85;;;13.90;86.50;;;;;;5052019;28;20475;-54
2021/11/10 20:22:41;;;;;;;16.50;12.25;;;14.10;86.40;;;;;;5039681;28;20088;-53
2021/11/10 20:25:10;;;;;;;19.67;13.52;;;14.10;86.30;;;;;;5051796;28;20044;-54
2021/11/10 20:27:39;;;;;;;21.10;13.00;;;14.10;86.00;;;;;;5045938;28;20021;-50
2021/11/10 20:30:05;;;;;;;17.00;13.13;;;14.20;86.10;;;;;;5047872;28;20052;-53
2021/11/10 20:32:33;;;;;;;16.42;12.70;;;14.10;86.40;;;;;;5046314;28;20055;-52
2021/11/10 20:34:59;;;;;;;16.08;12.43;;;14.20;86.40;;;;;;5052563;28;20032;-56
2021/11/10 20:37:25;;;;;;;19.08;13.00;;;14.30;86.40;;;;;;5047065;28;20021;-54
2021/11/10 20:39:51;;;;;;;16.67;12.02;;;14.30;85.80;;;;;;5052449;28;20044;-52
2021/11/10 20:42:17;;;;;;;18.88;13.55;;;14.30;85.50;;;;;;5048842;28;20029;-52
2021/11/10 20:44:43;;;;;;;18.05;12.13;;;14.20;85.60;;;;;;5053897;28;20104;-52
2021/11/10 20:47:12;;;;;;;18.25;12.25;;;14.30;85.20;;;;;;5049918;28;20439;-55
2021/11/10 20:49:38;;;;;;;14.10;11.73;;;14.30;85.10;;;;;;5041677;28;20037;-55
2021/11/10 20:52:05;;;;;;;14.63;11.13;;;14.30;85.70;;;;;;5051688;28;20025;-53
2021/11/10 20:54:31;;;;;;;14.13;11.07;;;14.20;85.20;;;;;;5049591;28;20037;-51
2021/11/10 20:56:56;;;;;;;14.23;11.35;;;14.20;85.40;;;;;;5044024;28;20082;-55
2021/11/10 20:59:24;;;;;;;15.38;11.95;;;14.40;85.40;;;;;;5050863;28;20029;-52
2021/11/10 21:01:50;;;;;;;16.25;11.88;;;14.40;85.00;;;;;;5042145;28;20026;-50
2021/11/10 21:04:17;;;;;;;15.35;12.07;;;14.40;85.00;;;;;;5044482;28;20017;-51
2021/11/10 21:06:42;;;;;;;18.65;13.25;;;14.50;87.10;;;;;;5048491;28;20066;-56
2021/11/10 21:09:08;;;;;;;22.15;12.73;;;14.40;87.10;;;;;;5053443;28;20029;-56
2021/11/10 21:11:34;;;;;;;15.57;11.75;;;14.30;90.50;;;;;;5048474;28;20020;-53
2021/11/10 21:14:00;;;;;;;17.95;12.32;;;14.40;90.20;;;;;;5048745;28;20025;-52
2021/11/10 21:16:27;;;;;;;16.08;12.18;;;14.40;90.20;;;;;;5041605;28;20032;-53
2021/11/10 21:18:53;;;;;;;18.08;13.38;;;14.50;90.10;;;;;;5048440;28;20076;-53
2021/11/10 21:21:18;;;;;;;18.83;14.65;;;14.50;90.70;;;;;;5047475;28;20146;-56
2021/11/10 21:23:44;;;;;;;19.15;14.38;;;14.40;90.70;;;;;;5047491;28;20039;-56
2021/11/10 21:26:10;;;;;;;18.13;12.90;;;14.40;90.00;;;;;;5053339;28;20154;-55
2021/11/10 21:28:36;;;;;;;22.45;15.60;;;14.50;87.60;;;;;;5043069;28;20357;-56
2021/11/10 21:31:02;;;;;;;18.70;14.25;;;14.50;86.90;;;;;;5048367;28;20739;-55
2021/11/10 21:33:31;;;;;;;18.45;13.90;;;14.50;87.00;;;;;;5043447;28;20029;-56
2021/11/10 21:36:05;;;;;;;16.30;12.95;;;14.50;86.60;;;;;;5048891;28;20032;-53
2021/11/10 21:38:31;;;;;;;16.17;13.13;;;14.50;86.60;;;;;;5049756;28;20453;-56
2021/11/10 21:40:56;;;;;;;20.08;13.63;;;14.60;87.50;;;;;;5049074;28;20025;-52
2021/11/10 21:46:45;;;;;;;22.13;13.75;;;14.60;83.00;;;;;;5048178;28;20056;-56
2021/11/10 21:49:11;;;;;;;15.98;12.27;;;14.60;82.20;;;;;;5049560;28;20078;-55
2021/11/10 21:51:39;;;;;;;17.40;12.55;;;14.60;81.30;;;;;;5045786;28;20036;-52
2021/11/10 21:54:06;;;;;;;19.15;14.15;;;14.60;80.00;;;;;;5033532;28;20030;-54
2021/11/10 21:56:33;;;;;;;17.38;12.75;;;14.50;79.70;;;;;;5046789;28;20390;-54
2021/11/10 21:58:59;;;;;;;20.58;13.65;;;14.50;79.40;;;;;;5050955;28;20044;-55
2021/11/10 22:01:25;;;;;;;19.30;13.65;;;14.40;79.10;;;;;;5045244;28;20025;-56
2021/11/10 22:03:51;;;;;;;16.27;14.07;;;14.40;79.10;;;;;;5048768;28;20025;-55
2021/11/10 22:06:17;;;;;;;17.25;12.60;;;14.50;78.60;;;;;;5049945;28;20032;-53
2021/11/10 22:08:43;;;;;;;19.58;12.35;;;14.40;77.60;;;;;;5047904;28;20025;-56
2021/11/10 22:11:08;;;;;;;15.52;13.13;;;14.40;77.40;;;;;;5039620;28;20033;-56
2021/11/10 22:13:34;;;;;;;16.45;13.13;;;14.40;76.70;;;;;;5064660;28;20021;-56
2021/11/10 22:16:00;;;;;;;16.52;12.50;;;14.40;76.60;;;;;;5039465;28;20124;-52
2021/11/10 22:18:25;;;;;;;17.73;13.48;;;14.40;76.70;;;;;;5049803;28;20418;-56
2021/11/10 22:24:14;;;;;;;17.48;12.32;;;14.50;77.20;;;;;;5039976;28;20068;-57
2021/11/10 22:26:44;;;;;;;16.20;13.25;;;14.50;76.90;;;;;;5047568;28;20464;-54
2021/11/10 22:29:10;;;;;;;16.27;13.02;;;14.50;77.80;;;;;;5047255;28;20509;-54
2021/11/10 22:31:37;;;;;;;16.00;12.48;;;14.50;77.30;;;;;;5047301;28;20036;-55
2021/11/10 22:34:11;;;;;;;18.45;12.60;;;14.40;77.70;;;;;;5050418;28;20040;-56
2021/11/10 22:36:37;;;;;;;16.42;12.27;;;14.30;77.30;;;;;;5050956;28;20170;-56
2021/11/10 22:39:04;;;;;;;17.05;13.07;;;14.20;77.90;;;;;;5048269;28;20131;-57
2021/11/10 22:41:30;;;;;;;17.50;12.80;;;14.30;77.70;;;;;;5067336;28;20029;-56
2021/11/10 22:43:57;;;;;;;18.70;13.82;;;14.30;78.10;;;;;;5051233;28;20147;-58
2021/11/10 22:46:22;;;;;;;18.10;14.48;;;14.30;77.80;;;;;;5051554;28;20048;-56
2021/11/10 22:48:48;;;;;;;20.55;14.45;;;14.30;78.50;;;;;;5047658;28;20149;-57
2021/11/10 22:51:14;;;;;;;19.95;14.10;;;14.30;78.90;;;;;;5051525;28;20473;-54
2021/11/10 22:53:39;;;;;;;19.73;14.02;;;14.20;79.20;;;;;;5041535;28;20103;-54
2021/11/10 22:56:13;;;;;;;19.85;14.25;;;14.20;79.60;;;;;;5051920;28;20532;-57
2021/11/10 22:58:38;;;;;;;19.20;14.25;;;14.20;80.20;;;;;;5049384;28;20047;-56
2021/11/10 23:01:04;;;;;;;19.58;13.95;;;14.20;80.50;;;;;;5051084;28;20034;-56
2021/11/10 23:03:30;;;;;;;18.35;13.38;;;14.00;81.20;;;;;;5047991;28;20037;-53
2021/11/10 23:05:57;;;;;;;16.13;13.30;;;14.00;81.40;;;;;;5044570;28;20055;-56
2021/11/10 23:08:23;;;;;;;15.25;13.02;;;14.00;81.30;;;;;;5052907;28;20025;-52
2021/11/10 23:10:49;;;;;;;17.02;12.23;;;13.90;81.90;;;;;;5042127;28;20589;-51
2021/11/10 23:13:15;;;;;;;18.20;14.15;;;13.90;82.10;;;;;;5052034;28;20467;-53
2021/11/10 23:15:41;;;;;;;17.75;14.20;;;13.90;82.50;;;;;;5055600;28;20025;-56
2021/11/10 23:18:07;;;;;;;17.98;13.63;;;13.90;82.50;;;;;;5054691;28;20124;-54
2021/11/10 23:20:33;;;;;;;18.98;14.45;;;13.80;82.10;;;;;;5052519;28;20040;-57
2021/11/10 23:22:59;;;;;;;18.63;12.30;;;13.90;81.90;;;;;;5054565;28;20033;-56
2021/11/10 23:25:31;;;;;;;18.35;13.20;;;14.00;81.90;;;;;;5052863;28;20410;-56
2021/11/10 23:27:59;;;;;;;16.90;13.77;;;14.00;82.60;;;;;;5055272;28;20021;-55
2021/11/10 23:30:29;;;;;;;17.40;13.30;;;14.20;81.90;;;;;;5052513;28;20025;-55
2021/11/10 23:32:55;;;;;;;17.50;12.88;;;14.10;81.60;;;;;;5044561;28;20803;-56
2021/11/10 23:35:26;;;;;;;18.75;13.93;;;14.20;82.20;;;;;;5041569;28;20029;-57
2021/11/10 23:41:14;;;;;;;17.50;14.00;;;14.10;82.10;;;;;;5050381;28;20047;-57
2021/11/10 23:43:40;;;;;;;19.25;12.45;;;14.10;82.20;;;;;;5050184;28;20021;-57
2021/11/10 23:46:06;;;;;;;15.05;12.80;;;14.10;82.10;;;;;;5042570;28;20029;-57
2021/11/10 23:48:32;;;;;;;16.40;12.63;;;14.10;82.20;;;;;;5046412;28;20032;-57
2021/11/10 23:50:58;;;;;;;17.15;13.15;;;14.10;82.40;;;;;;5047594;28;20390;-56
2021/11/10 23:53:26;;;;;;;20.80;13.32;;;14.10;82.40;;;;;;5044136;28;20040;-56
2021/11/10 23:55:53;;;;;;;16.20;13.60;;;14.10;82.50;;;;;;5047258;28;20053;-58
2021/11/10 23:58:19;;;;;;;18.48;13.25;;;14.10;83.20;;;;;;5046328;28;20029;-54
